Time,TemperatureF,DewpointF,PressureIn,WindDirection,WindDirectionDegrees,WindSpeedMPH,WindSpeedGustMPH,Humidity,HourlyPrecipIn,Conditions,Clouds,dailyrainin,SoftwareType,DateUTC
2013-01-09 00:02:00,36.3,29.1,30.28,North,360,5.0,7.0,75,0.00,,,0.00,Wunderground v.1.15,2013-01-09 06:02:00,
2013-01-09 00:12:00,36.2,29.7,30.29,North,4,6.0,7.0,77,0.00,,,0.00,Wunderground v.1.15,2013-01-09 06:12:00,
2013-01-09 00:22:00,36.4,29.6,30.30,North,11,6.0,6.0,76,0.00,,,0.00,Wunderground v.1.15,2013-01-09 06:22:00,
2013-01-09 00:32:00,36.8,29.9,30.29,NE,43,5.0,5.0,76,0.00,,,0.00,Wunderground v.1.15,2013-01-09 06:32:00,
2013-01-09 00:42:00,36.6,29.4,30.29,NE,37,4.0,7.0,75,0.00,,,0.00,Wunderground v.1.15,2013-01-09 06:42:00,
2013-01-09 00:52:00,36.5,29.7,30.29,ENE,61,4.0,4.0,76,0.00,,,0.00,Wunderground v.1.15,2013-01-09 06:52:00,
2013-01-09 01:02:00,36.1,29.3,30.30,NE,39,3.0,3.0,76,0.00,,,0.00,Wunderground v.1.15,2013-01-09 07:02:00,
2013-01-09 01:11:00,35.6,29.1,30.30,NE,44,3.0,3.0,77,0.00,,,0.00,Wunderground v.1.15,2013-01-09 07:11:00,
2013-01-09 01:21:00,35.4,29.2,30.30,NE,46,3.0,4.0,78,0.00,,,0.00,Wunderground v.1.15,2013-01-09 07:21:00,
2013-01-09 01:31:00,35.2,29.0,30.31,NNE,18,2.0,2.0,78,0.00,,,0.00,Wunderground v.1.15,2013-01-09 07:31:00,
2013-01-09 01:41:00,35.2,29.3,30.31,North,5,1.0,4.0,79,0.00,,,0.00,Wunderground v.1.15,2013-01-09 07:41:00,
2013-01-09 01:52:00,34.7,28.5,30.31,NW,322,5.0,5.0,78,0.00,,,0.00,Wunderground v.1.15,2013-01-09 07:52:00,
2013-01-09 02:02:00,33.5,28.0,30.31,North,356,2.0,2.0,80,0.00,,,0.00,Wunderground v.1.15,2013-01-09 08:02:00,
2013-01-09 02:12:00,33.6,28.7,30.31,NNE,20,2.0,4.0,82,0.00,,,0.00,Wunderground v.1.15,2013-01-09 08:12:00,
2013-01-09 02:22:00,34.4,29.2,30.33,NNE,28,4.0,6.0,81,0.00,,,0.00,Wunderground v.1.15,2013-01-09 08:22:00,
2013-01-09 02:32:00,34.4,28.6,30.33,NNW,341,4.0,4.0,79,0.00,,,0.00,Wunderground v.1.15,2013-01-09 08:32:00,
2013-01-09 02:42:00,33.5,28.0,30.32,ENE,62,1.0,2.0,80,0.00,,,0.00,Wunderground v.1.15,2013-01-09 08:42:00,
2013-01-09 02:52:00,33.6,28.1,30.32,NNE,15,4.0,5.0,80,0.00,,,0.00,Wunderground v.1.15,2013-01-09 08:52:00,
2013-01-09 03:02:00,33.3,27.5,30.34,ESE,118,3.0,3.0,79,0.00,,,0.00,Wunderground v.1.15,2013-01-09 09:02:00,
2013-01-09 03:12:00,32.6,28.0,30.33,NNE,20,3.0,4.0,83,0.00,,,0.00,Wunderground v.1.15,2013-01-09 09:12:00,
2013-01-09 03:17:00,32.4,27.5,30.34,North,0,3.0,-999.0,82,0.00,,,0.00,Wunderground v.1.15,2013-01-09 09:17:00,
2013-01-09 03:22:00,32.0,27.4,30.34,NNW,327,2.0,2.0,83,0.00,,,0.00,Wunderground v.1.15,2013-01-09 09:22:00,
2013-01-09 03:27:00,31.5,26.9,30.33,North,0,1.0,-999.0,83,0.00,,,0.00,Wunderground v.1.15,2013-01-09 09:27:00,
2013-01-09 03:32:00,31.5,26.9,30.33,North,0,1.0,-999.0,83,0.00,,,0.00,Wunderground v.1.15,2013-01-09 09:32:00,
2013-01-09 03:37:00,31.5,26.9,30.33,North,0,1.0,-999.0,83,0.00,,,0.00,Wunderground v.1.15,2013-01-09 09:37:00,
2013-01-09 03:42:00,31.7,27.4,30.33,NW,315,1.0,-999.0,84,0.00,,,0.00,Wunderground v.1.15,2013-01-09 09:42:00,
2013-01-09 03:47:00,31.7,27.4,30.33,NW,315,1.0,-999.0,84,0.00,,,0.00,Wunderground v.1.15,2013-01-09 09:47:00,
2013-01-09 03:52:00,31.7,27.4,30.33,NW,315,1.0,-999.0,84,0.00,,,0.00,Wunderground v.1.15,2013-01-09 09:52:00,
2013-01-09 03:57:00,30.8,26.5,30.33,NNW,338,2.0,-999.0,84,0.00,,,0.00,Wunderground v.1.15,2013-01-09 09:57:00,
2013-01-09 04:02:00,30.8,26.5,30.33,NNW,338,2.0,-999.0,84,0.00,,,0.00,Wunderground v.1.15,2013-01-09 10:02:00,
2013-01-09 04:07:00,30.8,26.5,30.33,NNW,338,2.0,-999.0,84,0.00,,,0.00,Wunderground v.1.15,2013-01-09 10:07:00,
2013-01-09 04:12:00,29.9,25.9,30.33,NW,315,3.0,-999.0,85,0.00,,,0.00,Wunderground v.1.15,2013-01-09 10:12:00,
2013-01-09 04:17:00,29.9,25.9,30.33,NW,315,3.0,-999.0,85,0.00,,,0.00,Wunderground v.1.15,2013-01-09 10:17:00,
2013-01-09 04:22:00,29.9,25.9,30.33,NW,315,3.0,-999.0,85,0.00,,,0.00,Wunderground v.1.15,2013-01-09 10:22:00,
2013-01-09 04:27:00,29.4,26.0,30.33,NW,315,2.0,-999.0,87,0.00,,,0.00,Wunderground v.1.15,2013-01-09 10:27:00,
2013-01-09 04:32:00,29.4,26.0,30.33,NW,315,2.0,-999.0,87,0.00,,,0.00,Wunderground v.1.15,2013-01-09 10:32:00,
2013-01-09 04:37:00,29.4,26.0,30.33,NW,315,2.0,-999.0,87,0.00,,,0.00,Wunderground v.1.15,2013-01-09 10:37:00,
2013-01-09 04:42:00,29.5,25.8,30.33,NW,315,4.0,-999.0,86,0.00,,,0.00,Wunderground v.1.15,2013-01-09 10:42:00,
2013-01-09 04:47:00,29.5,25.8,30.33,NW,315,4.0,-999.0,86,0.00,,,0.00,Wunderground v.1.15,2013-01-09 10:47:00,
2013-01-09 04:52:00,29.5,25.8,30.33,NW,315,4.0,-999.0,86,0.00,,,0.00,Wunderground v.1.15,2013-01-09 10:52:00,
2013-01-09 04:57:00,29.7,26.3,30.33,North,0,5.0,-999.0,87,0.00,,,0.00,Wunderground v.1.15,2013-01-09 10:57:00,
2013-01-09 05:02:00,29.7,26.3,30.33,North,0,5.0,-999.0,87,0.00,,,0.00,Wunderground v.1.15,2013-01-09 11:02:00,
2013-01-09 05:07:00,29.7,26.3,30.33,North,0,5.0,-999.0,87,0.00,,,0.00,Wunderground v.1.15,2013-01-09 11:07:00,
2013-01-09 05:12:00,30.3,26.6,30.34,North,0,6.0,-999.0,86,0.00,,,0.00,Wunderground v.1.15,2013-01-09 11:12:00,
2013-01-09 05:17:00,30.3,26.6,30.34,North,0,6.0,-999.0,86,0.00,,,0.00,Wunderground v.1.15,2013-01-09 11:17:00,
2013-01-09 05:22:00,30.3,26.6,30.34,North,0,6.0,-999.0,86,0.00,,,0.00,Wunderground v.1.15,2013-01-09 11:22:00,
2013-01-09 05:27:00,32.1,27.8,30.34,NNE,23,8.0,-999.0,84,0.00,,,0.00,Wunderground v.1.15,2013-01-09 11:27:00,
2013-01-09 05:32:00,32.1,27.8,30.34,NNE,23,8.0,-999.0,84,0.00,,,0.00,Wunderground v.1.15,2013-01-09 11:32:00,
2013-01-09 05:37:00,32.1,27.8,30.34,NNE,23,8.0,-999.0,84,0.00,,,0.00,Wunderground v.1.15,2013-01-09 11:37:00,
2013-01-09 05:42:00,33.0,27.8,30.34,NNE,23,10.0,-999.0,81,0.00,,,0.00,Wunderground v.1.15,2013-01-09 11:42:00,
2013-01-09 05:47:00,33.0,27.8,30.34,NNE,23,10.0,-999.0,81,0.00,,,0.00,Wunderground v.1.15,2013-01-09 11:47:00,
2013-01-09 05:52:00,33.0,27.8,30.34,NNE,23,10.0,-999.0,81,0.00,,,0.00,Wunderground v.1.15,2013-01-09 11:52:00,
2013-01-09 05:57:00,32.8,27.9,30.34,NNE,23,9.0,-999.0,82,0.00,,,0.00,Wunderground v.1.15,2013-01-09 11:57:00,
2013-01-09 06:02:00,32.8,27.9,30.34,NNE,23,9.0,-999.0,82,0.00,,,0.00,Wunderground v.1.15,2013-01-09 12:02:00,
2013-01-09 06:07:00,32.8,27.9,30.34,NNE,23,9.0,-999.0,82,0.00,,,0.00,Wunderground v.1.15,2013-01-09 12:07:00,
2013-01-09 06:12:00,33.1,27.6,30.36,NNE,23,9.0,-999.0,80,0.00,,,0.00,Wunderground v.1.15,2013-01-09 12:12:00,
2013-01-09 06:17:00,33.1,27.6,30.36,NNE,23,9.0,-999.0,80,0.00,,,0.00,Wunderground v.1.15,2013-01-09 12:17:00,
2013-01-09 06:22:00,33.1,27.6,30.36,NNE,23,9.0,-999.0,80,0.00,,,0.00,Wunderground v.1.15,2013-01-09 12:22:00,
2013-01-09 06:27:00,33.3,27.8,30.37,NNE,23,7.0,-999.0,80,0.00,,,0.00,Wunderground v.1.15,2013-01-09 12:27:00,
2013-01-09 06:32:00,33.3,27.8,30.37,NNE,23,7.0,-999.0,80,0.00,,,0.00,Wunderground v.1.15,2013-01-09 12:32:00,
2013-01-09 06:37:00,33.3,27.8,30.37,NNE,23,7.0,-999.0,80,0.00,,,0.00,Wunderground v.1.15,2013-01-09 12:37:00,
2013-01-09 06:42:00,34.0,28.5,30.38,NNE,23,7.0,-999.0,80,0.00,,,0.00,Wunderground v.1.15,2013-01-09 12:42:00,
2013-01-09 06:47:00,34.0,28.5,30.38,NNE,23,7.0,-999.0,80,0.00,,,0.00,Wunderground v.1.15,2013-01-09 12:47:00,
2013-01-09 06:52:00,34.0,28.5,30.38,NNE,23,7.0,-999.0,80,0.00,,,0.00,Wunderground v.1.15,2013-01-09 12:52:00,
2013-01-09 06:57:00,34.2,28.1,30.39,North,0,7.0,-999.0,78,0.00,,,0.00,Wunderground v.1.15,2013-01-09 12:57:00,
2013-01-09 07:02:00,34.2,28.1,30.39,North,0,7.0,-999.0,78,0.00,,,0.00,Wunderground v.1.15,2013-01-09 13:02:00,
2013-01-09 07:07:00,34.2,28.1,30.39,North,0,7.0,-999.0,78,0.00,,,0.00,Wunderground v.1.15,2013-01-09 13:07:00,
2013-01-09 07:12:00,34.0,27.5,30.41,NNE,23,6.0,-999.0,77,0.00,,,0.00,Wunderground v.1.15,2013-01-09 13:12:00,
2013-01-09 07:17:00,34.0,27.5,30.41,NNE,23,6.0,-999.0,77,0.00,,,0.00,Wunderground v.1.15,2013-01-09 13:17:00,
2013-01-09 07:22:00,34.0,27.5,30.41,NNE,23,6.0,-999.0,77,0.00,,,0.00,Wunderground v.1.15,2013-01-09 13:22:00,
2013-01-09 07:27:00,32.8,27.0,30.42,North,0,6.0,-999.0,79,0.00,,,0.00,Wunderground v.1.15,2013-01-09 13:27:00,
2013-01-09 07:32:00,32.8,27.0,30.42,North,0,6.0,-999.0,79,0.00,,,0.00,Wunderground v.1.15,2013-01-09 13:32:00,
2013-01-09 07:37:00,32.8,27.0,30.42,North,0,6.0,-999.0,79,0.00,,,0.00,Wunderground v.1.15,2013-01-09 13:37:00,
2013-01-09 07:42:00,32.2,26.7,30.43,North,0,5.0,-999.0,80,0.00,,,0.00,Wunderground v.1.15,2013-01-09 13:42:00,
2013-01-09 07:47:00,32.2,26.7,30.43,North,0,5.0,-999.0,80,0.00,,,0.00,Wunderground v.1.15,2013-01-09 13:47:00,
2013-01-09 07:52:00,32.2,26.7,30.43,North,0,5.0,-999.0,80,0.00,,,0.00,Wunderground v.1.15,2013-01-09 13:52:00,
2013-01-09 07:57:00,31.8,26.6,30.45,NNW,338,5.0,-999.0,81,0.00,,,0.00,Wunderground v.1.15,2013-01-09 13:57:00,
2013-01-09 08:02:00,31.8,26.6,30.45,NNW,338,5.0,-999.0,81,0.00,,,0.00,Wunderground v.1.15,2013-01-09 14:02:00,
2013-01-09 08:07:00,31.8,26.6,30.45,NNW,338,5.0,-999.0,81,0.00,,,0.00,Wunderground v.1.15,2013-01-09 14:07:00,
2013-01-09 08:12:00,31.6,26.7,30.45,NNW,338,4.0,-999.0,82,0.00,,,0.00,Wunderground v.1.15,2013-01-09 14:12:00,
2013-01-09 08:17:00,31.6,26.7,30.45,NNW,338,4.0,-999.0,82,0.00,,,0.00,Wunderground v.1.15,2013-01-09 14:17:00,
2013-01-09 08:22:00,31.6,26.7,30.45,NNW,338,4.0,-999.0,82,0.00,,,0.00,Wunderground v.1.15,2013-01-09 14:22:00,
2013-01-09 08:27:00,32.6,28.0,30.45,NNE,23,5.0,-999.0,83,0.00,,,0.00,Wunderground v.1.15,2013-01-09 14:27:00,
2013-01-09 08:32:00,32.6,28.0,30.45,NNE,23,5.0,-999.0,83,0.00,,,0.00,Wunderground v.1.15,2013-01-09 14:32:00,
2013-01-09 08:37:00,32.6,28.0,30.45,NNE,23,5.0,-999.0,83,0.00,,,0.00,Wunderground v.1.15,2013-01-09 14:37:00,
2013-01-09 08:42:00,34.6,28.8,30.46,NNE,23,6.0,-999.0,79,0.00,,,0.00,Wunderground v.1.15,2013-01-09 14:42:00,
2013-01-09 08:47:00,34.6,28.8,30.46,NNE,23,6.0,-999.0,79,0.00,,,0.00,Wunderground v.1.15,2013-01-09 14:47:00,
2013-01-09 08:52:00,34.6,28.8,30.46,NNE,23,6.0,-999.0,79,0.00,,,0.00,Wunderground v.1.15,2013-01-09 14:52:00,
2013-01-09 08:57:00,35.8,29.3,30.45,NE,45,6.0,-999.0,77,0.00,,,0.00,Wunderground v.1.15,2013-01-09 14:57:00,
2013-01-09 09:02:00,35.8,29.3,30.45,NE,45,6.0,-999.0,77,0.00,,,0.00,Wunderground v.1.15,2013-01-09 15:02:00,
2013-01-09 09:07:00,35.8,29.3,30.45,NE,45,6.0,-999.0,77,0.00,,,0.00,Wunderground v.1.15,2013-01-09 15:07:00,
2013-01-09 09:12:00,36.7,29.8,30.45,NNE,23,7.0,-999.0,76,0.00,,,0.00,Wunderground v.1.15,2013-01-09 15:12:00,
2013-01-09 09:17:00,36.7,29.8,30.45,NNE,23,7.0,-999.0,76,0.00,,,0.00,Wunderground v.1.15,2013-01-09 15:17:00,
2013-01-09 09:22:00,36.7,29.8,30.45,NNE,23,7.0,-999.0,76,0.00,,,0.00,Wunderground v.1.15,2013-01-09 15:22:00,
2013-01-09 09:27:00,36.7,29.8,30.45,NNE,23,8.0,-999.0,76,0.00,,,0.00,Wunderground v.1.15,2013-01-09 15:27:00,
2013-01-09 09:32:00,36.7,29.8,30.45,NNE,23,8.0,-999.0,76,0.00,,,0.00,Wunderground v.1.15,2013-01-09 15:32:00,
2013-01-09 09:37:00,36.7,29.8,30.45,NNE,23,8.0,-999.0,76,0.00,,,0.00,Wunderground v.1.15,2013-01-09 15:37:00,
2013-01-09 09:42:00,36.9,30.4,30.45,NNE,23,8.0,-999.0,77,0.00,,,0.00,Wunderground v.1.15,2013-01-09 15:42:00,
2013-01-09 09:47:00,36.9,30.4,30.45,NNE,23,8.0,-999.0,77,0.00,,,0.00,Wunderground v.1.15,2013-01-09 15:47:00,
2013-01-09 09:52:00,36.9,30.4,30.45,NNE,23,8.0,-999.0,77,0.00,,,0.00,Wunderground v.1.15,2013-01-09 15:52:00,
2013-01-09 09:57:00,37.4,30.5,30.47,NNE,23,6.0,-999.0,76,0.00,,,0.00,Wunderground v.1.15,2013-01-09 15:57:00,
2013-01-09 10:02:00,37.4,30.5,30.47,NNE,23,6.0,-999.0,76,0.00,,,0.00,Wunderground v.1.15,2013-01-09 16:02:00,
2013-01-09 10:07:00,37.4,30.5,30.47,NNE,23,6.0,-999.0,76,0.00,,,0.00,Wunderground v.1.15,2013-01-09 16:07:00,
2013-01-09 10:12:00,38.1,30.9,30.49,NNE,23,4.0,-999.0,75,0.00,,,0.00,Wunderground v.1.15,2013-01-09 16:12:00,
2013-01-09 10:17:00,38.1,30.9,30.49,NNE,23,4.0,-999.0,75,0.00,,,0.00,Wunderground v.1.15,2013-01-09 16:17:00,
2013-01-09 10:22:00,38.1,30.9,30.49,NNE,23,4.0,-999.0,75,0.00,,,0.00,Wunderground v.1.15,2013-01-09 16:22:00,
2013-01-09 10:27:00,38.9,31.0,30.48,NE,45,5.0,-999.0,73,0.00,,,0.00,Wunderground v.1.15,2013-01-09 16:27:00,
2013-01-09 10:32:00,38.9,31.0,30.48,NE,45,5.0,-999.0,73,0.00,,,0.00,Wunderground v.1.15,2013-01-09 16:32:00,
2013-01-09 10:37:00,38.9,31.0,30.48,NE,45,5.0,-999.0,73,0.00,,,0.00,Wunderground v.1.15,2013-01-09 16:37:00,
2013-01-09 10:42:00,40.2,31.9,30.48,NE,45,6.0,-999.0,72,0.00,,,0.00,Wunderground v.1.15,2013-01-09 16:42:00,
2013-01-09 10:47:00,40.2,31.9,30.48,NE,45,6.0,-999.0,72,0.00,,,0.00,Wunderground v.1.15,2013-01-09 16:47:00,
2013-01-09 10:52:00,40.2,31.9,30.48,NE,45,6.0,-999.0,72,0.00,,,0.00,Wunderground v.1.15,2013-01-09 16:52:00,
2013-01-09 10:57:00,41.3,32.2,30.47,NE,45,8.0,-999.0,70,0.00,,,0.00,Wunderground v.1.15,2013-01-09 16:57:00,
2013-01-09 11:02:00,41.3,32.2,30.47,NE,45,8.0,-999.0,70,0.00,,,0.00,Wunderground v.1.15,2013-01-09 17:02:00,
2013-01-09 11:07:00,41.3,32.2,30.47,NE,45,8.0,-999.0,70,0.00,,,0.00,Wunderground v.1.15,2013-01-09 17:07:00,
2013-01-09 11:12:00,42.0,32.6,30.48,NE,45,8.0,-999.0,69,0.00,,,0.00,Wunderground v.1.15,2013-01-09 17:12:00,
2013-01-09 11:17:00,42.0,32.6,30.48,NE,45,8.0,-999.0,69,0.00,,,0.00,Wunderground v.1.15,2013-01-09 17:17:00,
2013-01-09 11:22:00,42.0,32.6,30.48,NE,45,8.0,-999.0,69,0.00,,,0.00,Wunderground v.1.15,2013-01-09 17:22:00,
2013-01-09 11:27:00,43.4,33.2,30.47,NE,45,7.0,-999.0,67,0.00,,,0.00,Wunderground v.1.15,2013-01-09 17:27:00,
2013-01-09 11:32:00,43.4,33.2,30.47,NE,45,7.0,-999.0,67,0.00,,,0.00,Wunderground v.1.15,2013-01-09 17:32:00,
2013-01-09 11:37:00,43.4,33.2,30.47,NE,45,7.0,-999.0,67,0.00,,,0.00,Wunderground v.1.15,2013-01-09 17:37:00,
2013-01-09 11:42:00,44.3,33.7,30.45,NNE,23,10.0,-999.0,66,0.00,,,0.00,Wunderground v.1.15,2013-01-09 17:42:00,
2013-01-09 11:47:00,44.3,33.7,30.45,NNE,23,10.0,-999.0,66,0.00,,,0.00,Wunderground v.1.15,2013-01-09 17:47:00,
2013-01-09 11:52:00,44.3,33.7,30.45,NNE,23,10.0,-999.0,66,0.00,,,0.00,Wunderground v.1.15,2013-01-09 17:52:00,
2013-01-09 11:57:00,45.9,34.0,30.45,NNE,23,9.0,-999.0,63,0.00,,,0.00,Wunderground v.1.15,2013-01-09 17:57:00,
2013-01-09 12:02:00,45.9,34.0,30.45,NNE,23,9.0,-999.0,63,0.00,,,0.00,Wunderground v.1.15,2013-01-09 18:02:00,
2013-01-09 12:07:00,45.9,34.0,30.45,NNE,23,9.0,-999.0,63,0.00,,,0.00,Wunderground v.1.15,2013-01-09 18:07:00,
2013-01-09 12:12:00,47.2,34.4,30.44,NE,45,8.0,-999.0,61,0.00,,,0.00,Wunderground v.1.15,2013-01-09 18:12:00,
2013-01-09 12:17:00,47.2,34.4,30.44,NE,45,8.0,-999.0,61,0.00,,,0.00,Wunderground v.1.15,2013-01-09 18:17:00,
2013-01-09 12:22:00,47.2,34.4,30.44,NE,45,8.0,-999.0,61,0.00,,,0.00,Wunderground v.1.15,2013-01-09 18:22:00,
2013-01-09 12:27:00,48.0,34.3,30.43,NE,45,10.0,-999.0,59,0.00,,,0.00,Wunderground v.1.15,2013-01-09 18:27:00,
2013-01-09 12:32:00,48.0,34.3,30.43,NE,45,10.0,-999.0,59,0.00,,,0.00,Wunderground v.1.15,2013-01-09 18:32:00,
2013-01-09 12:37:00,48.0,34.3,30.43,NE,45,10.0,-999.0,59,0.00,,,0.00,Wunderground v.1.15,2013-01-09 18:37:00,
2013-01-09 12:42:00,49.2,34.6,30.43,NE,45,9.0,-999.0,57,0.00,,,0.00,Wunderground v.1.15,2013-01-09 18:42:00,
2013-01-09 12:47:00,49.2,34.6,30.43,NE,45,9.0,-999.0,57,0.00,,,0.00,Wunderground v.1.15,2013-01-09 18:47:00,
2013-01-09 12:52:00,49.2,34.6,30.43,NE,45,9.0,-999.0,57,0.00,,,0.00,Wunderground v.1.15,2013-01-09 18:52:00,
2013-01-09 12:57:00,50.0,34.9,30.42,ENE,68,7.0,-999.0,56,0.00,,,0.00,Wunderground v.1.15,2013-01-09 18:57:00,
2013-01-09 13:02:00,50.0,34.9,30.42,ENE,68,7.0,-999.0,56,0.00,,,0.00,Wunderground v.1.15,2013-01-09 19:02:00,
2013-01-09 13:07:00,50.0,34.9,30.42,ENE,68,7.0,-999.0,56,0.00,,,0.00,Wunderground v.1.15,2013-01-09 19:07:00,
2013-01-09 13:12:00,50.7,34.6,30.41,ENE,68,8.0,-999.0,54,0.00,,,0.00,Wunderground v.1.15,2013-01-09 19:12:00,
2013-01-09 13:17:00,50.7,34.6,30.41,ENE,68,8.0,-999.0,54,0.00,,,0.00,Wunderground v.1.15,2013-01-09 19:17:00,
2013-01-09 13:22:00,50.7,34.6,30.41,ENE,68,8.0,-999.0,54,0.00,,,0.00,Wunderground v.1.15,2013-01-09 19:22:00,
2013-01-09 13:27:00,51.3,34.7,30.41,ENE,68,8.0,-999.0,53,0.00,,,0.00,Wunderground v.1.15,2013-01-09 19:27:00,
2013-01-09 13:32:00,51.3,34.7,30.41,ENE,68,8.0,-999.0,53,0.00,,,0.00,Wunderground v.1.15,2013-01-09 19:32:00,
2013-01-09 13:37:00,51.3,34.7,30.41,ENE,68,8.0,-999.0,53,0.00,,,0.00,Wunderground v.1.15,2013-01-09 19:37:00,
2013-01-09 13:42:00,52.1,34.5,30.42,ENE,68,7.0,-999.0,51,0.00,,,0.00,Wunderground v.1.15,2013-01-09 19:42:00,
2013-01-09 13:47:00,52.1,34.5,30.42,ENE,68,7.0,-999.0,51,0.00,,,0.00,Wunderground v.1.15,2013-01-09 19:47:00,
2013-01-09 13:52:00,52.1,34.5,30.42,ENE,68,7.0,-999.0,51,0.00,,,0.00,Wunderground v.1.15,2013-01-09 19:52:00,
2013-01-09 13:57:00,52.3,34.2,30.42,ENE,68,7.0,-999.0,50,0.00,,,0.00,Wunderground v.1.15,2013-01-09 19:57:00,
2013-01-09 14:02:00,52.3,34.2,30.42,ENE,68,7.0,-999.0,50,0.00,,,0.00,Wunderground v.1.15,2013-01-09 20:02:00,
2013-01-09 14:07:00,52.3,34.2,30.42,ENE,68,7.0,-999.0,50,0.00,,,0.00,Wunderground v.1.15,2013-01-09 20:07:00,
2013-01-09 14:16:00,52.6,33.5,30.41,ENE,78,8.0,8.0,48,0.00,,,0.00,Wunderground v.1.15,2013-01-09 20:16:00,
2013-01-09 14:18:00,52.6,33.5,30.41,ENE,68,9.0,-999.0,48,0.00,,,0.00,Wunderground v.1.15,2013-01-09 20:18:00,
2013-01-09 14:32:00,52.8,33.6,30.40,ENE,65,6.0,6.0,48,0.00,,,0.00,Wunderground v.1.15,2013-01-09 20:32:00,
2013-01-09 14:42:00,52.5,33.9,30.40,NE,47,7.0,7.0,49,0.00,,,0.00,Wunderground v.1.15,2013-01-09 20:42:00,
2013-01-09 14:52:00,52.3,33.7,30.40,ENE,60,8.0,8.0,49,0.00,,,0.00,Wunderground v.1.15,2013-01-09 20:52:00,
2013-01-09 15:02:00,52.3,33.7,30.39,NE,56,8.0,11.0,49,0.00,,,0.00,Wunderground v.1.15,2013-01-09 21:02:00,
2013-01-09 15:12:00,52.1,34.0,30.39,NE,48,9.0,9.0,50,0.00,,,0.00,Wunderground v.1.15,2013-01-09 21:12:00,
2013-01-09 15:22:00,52.0,34.4,30.39,ENE,68,6.0,6.0,51,0.00,,,0.00,Wunderground v.1.15,2013-01-09 21:22:00,
2013-01-09 15:32:00,51.8,34.2,30.39,ENE,58,7.0,8.0,51,0.00,,,0.00,Wunderground v.1.15,2013-01-09 21:32:00,
2013-01-09 15:42:00,51.8,34.7,30.39,NE,41,9.0,9.0,52,0.00,,,0.00,Wunderground v.1.15,2013-01-09 21:42:00,
2013-01-09 15:52:00,51.7,34.6,30.39,ENE,64,7.0,7.0,52,0.00,,,0.00,Wunderground v.1.15,2013-01-09 21:52:00,
2013-01-09 16:02:00,51.6,34.5,30.39,ENE,70,7.0,7.0,52,0.00,,,0.00,Wunderground v.1.15,2013-01-09 22:02:00,
2013-01-09 16:12:00,51.5,34.4,30.39,NE,51,6.0,6.0,52,0.00,,,0.00,Wunderground v.1.15,2013-01-09 22:12:00,
2013-01-09 16:21:00,51.3,34.7,30.39,ENE,63,6.0,6.0,53,0.00,,,0.00,Wunderground v.1.15,2013-01-09 22:21:00,
2013-01-09 16:31:00,51.1,34.5,30.39,ENE,61,6.0,8.0,53,0.00,,,0.00,Wunderground v.1.15,2013-01-09 22:31:00,
2013-01-09 16:41:00,50.8,34.3,30.39,NE,56,5.0,5.0,53,0.00,,,0.00,Wunderground v.1.15,2013-01-09 22:41:00,
2013-01-09 16:51:00,50.5,34.5,30.39,NE,51,5.0,6.0,54,0.00,,,0.00,Wunderground v.1.15,2013-01-09 22:51:00,
2013-01-09 17:02:00,50.2,34.2,30.39,NE,51,5.0,5.0,54,0.00,,,0.00,Wunderground v.1.15,2013-01-09 23:02:00,
2013-01-09 17:12:00,49.8,33.8,30.39,NNE,31,5.0,6.0,54,0.00,,,0.00,Wunderground v.1.15,2013-01-09 23:12:00,
2013-01-09 17:22:00,49.5,33.5,30.39,ENE,60,6.0,6.0,54,0.00,,,0.00,Wunderground v.1.15,2013-01-09 23:22:00,
2013-01-09 17:32:00,49.1,33.6,30.39,ENE,57,5.0,5.0,55,0.00,,,0.00,Wunderground v.1.15,2013-01-09 23:32:00,
2013-01-09 17:42:00,48.9,33.4,30.39,ENE,63,6.0,8.0,55,0.00,,,0.00,Wunderground v.1.15,2013-01-09 23:42:00,
2013-01-09 17:52:00,48.8,32.9,30.39,NE,44,6.0,6.0,54,0.00,,,0.00,Wunderground v.1.15,2013-01-09 23:52:00,
2013-01-09 18:02:00,48.7,32.8,30.38,NE,50,6.0,6.0,54,0.00,,,0.00,Wunderground v.1.15,2013-01-10 00:02:00,
2013-01-09 18:12:00,48.2,32.8,30.38,NE,53,6.0,6.0,55,0.00,,,0.00,Wunderground v.1.15,2013-01-10 00:12:00,
2013-01-09 18:22:00,47.6,32.7,30.38,NE,56,5.0,5.0,56,0.00,,,0.00,Wunderground v.1.15,2013-01-10 00:22:00,
2013-01-09 18:32:00,47.3,32.8,30.38,NE,53,6.0,7.0,57,0.00,,,0.00,Wunderground v.1.15,2013-01-10 00:32:00,
2013-01-09 18:42:00,47.1,32.6,30.38,ENE,58,7.0,7.0,57,0.00,,,0.00,Wunderground v.1.15,2013-01-10 00:42:00,
2013-01-09 18:52:00,47.0,33.0,30.38,ENE,60,7.0,7.0,58,0.00,,,0.00,Wunderground v.1.15,2013-01-10 00:52:00,
2013-01-09 19:02:00,46.9,32.4,30.37,NE,40,7.0,9.0,57,0.00,,,0.00,Wunderground v.1.15,2013-01-10 01:02:00,
2013-01-09 19:12:00,46.7,32.7,30.37,NE,49,9.0,9.0,58,0.00,,,0.00,Wunderground v.1.15,2013-01-10 01:12:00,
2013-01-09 19:22:00,46.3,32.3,30.37,ENE,75,10.0,11.0,58,0.00,,,0.00,Wunderground v.1.15,2013-01-10 01:22:00,
2013-01-09 19:32:00,45.9,32.4,30.38,ENE,61,7.0,8.0,59,0.00,,,0.00,Wunderground v.1.15,2013-01-10 01:32:00,
2013-01-09 19:41:00,45.7,32.6,30.37,ENE,64,7.0,9.0,60,0.00,,,0.00,Wunderground v.1.15,2013-01-10 01:41:00,
2013-01-09 19:51:00,45.7,33.0,30.37,NE,53,7.0,7.0,61,0.00,,,0.00,Wunderground v.1.15,2013-01-10 01:51:00,
2013-01-09 20:01:00,45.7,33.0,30.37,NE,46,7.0,7.0,61,0.00,,,0.00,Wunderground v.1.15,2013-01-10 02:01:00,
2013-01-09 20:12:00,46.0,33.3,30.37,ENE,62,7.0,10.0,61,0.00,,,0.00,Wunderground v.1.15,2013-01-10 02:12:00,
2013-01-09 20:21:00,46.5,33.8,30.37,ENE,68,9.0,9.0,61,0.00,,,0.00,Wunderground v.1.15,2013-01-10 02:21:00,
2013-01-09 20:31:00,46.7,33.5,30.37,NE,52,8.0,13.0,60,0.00,,,0.00,Wunderground v.1.15,2013-01-10 02:31:00,
2013-01-09 20:42:00,46.9,33.7,30.36,ENE,72,9.0,9.0,60,0.00,,,0.00,Wunderground v.1.15,2013-01-10 02:42:00,
2013-01-09 20:52:00,46.9,33.7,30.36,ENE,64,9.0,9.0,60,0.00,,,0.00,Wunderground v.1.15,2013-01-10 02:52:00,
2013-01-09 21:02:00,47.0,33.4,30.35,East,85,9.0,9.0,59,0.00,,,0.00,Wunderground v.1.15,2013-01-10 03:02:00,
2013-01-09 21:12:00,47.4,33.4,30.35,East,93,10.0,10.0,58,0.00,,,0.00,Wunderground v.1.15,2013-01-10 03:12:00,
2013-01-09 21:22:00,48.1,33.1,30.35,East,88,12.0,12.0,56,0.00,,,0.00,Wunderground v.1.15,2013-01-10 03:22:00,
2013-01-09 21:32:00,48.5,33.1,30.34,East,83,13.0,13.0,55,0.00,,,0.00,Wunderground v.1.15,2013-01-10 03:32:00,
2013-01-09 21:42:00,48.8,32.9,30.34,East,98,14.0,14.0,54,0.00,,,0.00,Wunderground v.1.15,2013-01-10 03:42:00,
2013-01-09 21:52:00,48.9,33.0,30.34,East,84,14.0,14.0,54,0.00,,,0.00,Wunderground v.1.15,2013-01-10 03:52:00,
2013-01-09 22:02:00,48.8,32.9,30.33,East,79,13.0,14.0,54,0.00,,,0.00,Wunderground v.1.15,2013-01-10 04:02:00,
2013-01-09 22:12:00,48.7,33.2,30.33,East,84,14.0,14.0,55,0.00,,,0.00,Wunderground v.1.15,2013-01-10 04:12:00,
2013-01-09 22:22:00,48.4,33.4,30.33,East,101,13.0,13.0,56,0.00,,,0.00,Wunderground v.1.15,2013-01-10 04:22:00,
2013-01-09 22:32:00,48.3,33.3,30.32,East,101,13.0,13.0,56,0.00,,,0.00,Wunderground v.1.15,2013-01-10 04:32:00,
2013-01-09 22:42:00,48.2,33.2,30.32,East,93,13.0,13.0,56,0.00,,,0.00,Wunderground v.1.15,2013-01-10 04:42:00,
2013-01-09 22:52:00,48.1,33.6,30.32,ENE,73,13.0,13.0,57,0.00,,,0.00,Wunderground v.1.15,2013-01-10 04:52:00,
2013-01-09 23:02:00,48.1,33.6,30.31,East,95,12.0,13.0,57,0.00,,,0.00,Wunderground v.1.15,2013-01-10 05:02:00,
2013-01-09 23:12:00,48.1,33.6,30.31,ENE,69,12.0,12.0,57,0.00,,,0.00,Wunderground v.1.15,2013-01-10 05:12:00,
2013-01-09 23:21:00,47.9,33.4,30.30,ENE,72,12.0,13.0,57,0.00,,,0.00,Wunderground v.1.15,2013-01-10 05:21:00,
2013-01-09 23:32:00,47.7,33.6,30.30,East,96,12.0,12.0,58,0.00,,,0.00,Wunderground v.1.15,2013-01-10 05:32:00,
2013-01-09 23:42:00,47.4,33.8,30.30,East,91,10.0,10.0,59,0.00,,,0.00,Wunderground v.1.15,2013-01-10 05:42:00,
2013-01-09 23:52:00,47.5,33.4,30.30,East,92,10.0,10.0,58,0.00,,,0.00,Wunderground v.1.15,2013-01-10 05:52:00,